Rechercher aéroport 
image banner adimage banner adimage banner ad
image banner ad

TUPW - Spanishtown/Virgin Gorda (Virgin Gorda Is-B.V.I)

Situé à Spanish Town, Virgin Islands British

ICAO - TUPW, IATA - VIJ

Données fournies par Airmate  

Information générale

Coordonnées: N18°26'48" W64°25'40"
Élévation : 9 feet MSL.
 
Voir autres Aéroports à (unassigned)

Données opérationnelles

Special qualification required
Heure actuelle UTC:
Heure actuelle locale:
Météo à : TUPJ - Terrance B Lettsome Intl ( 12 km )
METAR: TUPJ 172000Z 16008KT 10SM FEW023 28/24 A3001 RMK Q1016 VIS16KM
TAF: TAF TUPJ 171700Z 1712/1812 14009KT 9999 FEW022
Voir NOTAMs / SUP AIP / TFR affectant cet aéroport [VIEW]
Fréquences de communication: [VIEW]

Pistes:

Coordonnées de l'aéroport

Adresse: Spanish Town Virgin Islands British

Vue satellite de TUPW